Terminal Aerodrome Forecast
Issued by NWS

Home | Current Version | Previous Version | Text Only | Print | Product List | Glossary Off
Versions: 1 2 3 4 5 6 7 8 9 10 11 12 13

000
FTUS43 KMPX 042339
TAFAXN
TAF
KAXN 042339Z 0500/0524 34009KT P6SM SKC
     FM050300 01003KT P6SM SCT100
     FM051300 20006KT P6SM FEW250
     FM051900 24010G15KT P6SM SKC=

USA.gov is the U.S. government's official web portal to all federal, state and local government web resources and services.